sensor_id;sensor_type;location;lat;lon;timestamp;P1;durP1;ratioP1;P2;durP2;ratioP2
65552;SDS011;52465;51.560;14.368;2022-08-14T00:02:21;4.22;;;3.58;;
65552;SDS011;52465;51.560;14.368;2022-08-14T00:04:47;5.57;;;3.92;;
65552;SDS011;52465;51.560;14.368;2022-08-14T00:07:12;4.30;;;3.88;;
65552;SDS011;52465;51.560;14.368;2022-08-14T00:09:38;3.92;;;3.53;;
65552;SDS011;52465;51.560;14.368;2022-08-14T00:12:03;4.38;;;3.97;;
65552;SDS011;52465;51.560;14.368;2022-08-14T00:14:30;4.90;;;3.60;;
65552;SDS011;52465;51.560;14.368;2022-08-14T00:16:55;4.03;;;3.63;;
65552;SDS011;52465;51.560;14.368;2022-08-14T00:19:21;4.05;;;3.65;;
65552;SDS011;52465;51.560;14.368;2022-08-14T00:21:47;3.97;;;3.58;;
65552;SDS011;52465;51.560;14.368;2022-08-14T00:24:13;3.97;;;3.47;;
65552;SDS011;52465;51.560;14.368;2022-08-14T00:26:38;4.57;;;3.80;;
65552;SDS011;52465;51.560;14.368;2022-08-14T00:29:04;4.25;;;3.60;;
65552;SDS011;52465;51.560;14.368;2022-08-14T00:31:29;4.65;;;3.70;;
65552;SDS011;52465;51.560;14.368;2022-08-14T00:33:54;4.43;;;3.42;;
65552;SDS011;52465;51.560;14.368;2022-08-14T00:36:21;4.43;;;3.80;;
65552;SDS011;52465;51.560;14.368;2022-08-14T00:38:47;4.20;;;3.33;;
65552;SDS011;52465;51.560;14.368;2022-08-14T00:41:13;4.13;;;3.33;;
65552;SDS011;52465;51.560;14.368;2022-08-14T00:43:38;3.95;;;3.40;;
65552;SDS011;52465;51.560;14.368;2022-08-14T00:46:04;4.07;;;3.65;;
65552;SDS011;52465;51.560;14.368;2022-08-14T00:48:31;5.55;;;3.58;;
65552;SDS011;52465;51.560;14.368;2022-08-14T00:50:58;4.35;;;3.40;;
65552;SDS011;52465;51.560;14.368;2022-08-14T00:53:23;3.90;;;3.50;;
65552;SDS011;52465;51.560;14.368;2022-08-14T00:55:50;4.25;;;3.65;;
65552;SDS011;52465;51.560;14.368;2022-08-14T00:58:16;4.70;;;3.72;;
65552;SDS011;52465;51.560;14.368;2022-08-14T01:00:57;4.50;;;3.53;;
65552;SDS011;52465;51.560;14.368;2022-08-14T01:03:24;4.45;;;3.70;;
65552;SDS011;52465;51.560;14.368;2022-08-14T01:05:53;4.68;;;3.70;;
65552;SDS011;52465;51.560;14.368;2022-08-14T01:08:20;4.35;;;3.55;;
65552;SDS011;52465;51.560;14.368;2022-08-14T01:10:47;4.00;;;3.58;;
65552;SDS011;52465;51.560;14.368;2022-08-14T01:13:27;4.00;;;3.60;;
65552;SDS011;52465;51.560;14.368;2022-08-14T01:15:58;3.95;;;3.53;;
65552;SDS011;52465;51.560;14.368;2022-08-14T01:18:26;4.07;;;3.67;;
65552;SDS011;52465;51.560;14.368;2022-08-14T01:21:11;3.85;;;3.28;;
65552;SDS011;52465;51.560;14.368;2022-08-14T01:23:41;4.22;;;3.83;;
65552;SDS011;52465;51.560;14.368;2022-08-14T01:26:08;4.72;;;3.08;;
65552;SDS011;52465;51.560;14.368;2022-08-14T01:28:35;3.88;;;3.33;;
65552;SDS011;52465;51.560;14.368;2022-08-14T01:31:02;3.58;;;3.10;;
65552;SDS011;52465;51.560;14.368;2022-08-14T01:33:34;3.97;;;3.50;;
65552;SDS011;52465;51.560;14.368;2022-08-14T01:36:04;3.80;;;3.20;;
65552;SDS011;52465;51.560;14.368;2022-08-14T01:38:30;4.00;;;3.55;;
65552;SDS011;52465;51.560;14.368;2022-08-14T01:41:01;4.30;;;3.83;;
65552;SDS011;52465;51.560;14.368;2022-08-14T01:43:31;4.00;;;3.60;;
65552;SDS011;52465;51.560;14.368;2022-08-14T01:46:02;4.63;;;3.60;;
65552;SDS011;52465;51.560;14.368;2022-08-14T01:48:28;4.80;;;3.60;;
65552;SDS011;52465;51.560;14.368;2022-08-14T01:50:57;4.15;;;3.58;;
65552;SDS011;52465;51.560;14.368;2022-08-14T01:53:25;4.18;;;3.28;;
65552;SDS011;52465;51.560;14.368;2022-08-14T01:55:52;3.90;;;3.10;;
65552;SDS011;52465;51.560;14.368;2022-08-14T01:58:22;3.97;;;3.47;;
65552;SDS011;52465;51.560;14.368;2022-08-14T02:00:51;3.85;;;3.30;;
65552;SDS011;52465;51.560;14.368;2022-08-14T02:03:22;4.45;;;3.40;;
65552;SDS011;52465;51.560;14.368;2022-08-14T02:05:49;3.80;;;3.33;;
65552;SDS011;52465;51.560;14.368;2022-08-14T02:08:15;3.88;;;3.47;;
65552;SDS011;52465;51.560;14.368;2022-08-14T02:10:41;3.63;;;3.28;;
65552;SDS011;52465;51.560;14.368;2022-08-14T02:13:07;4.32;;;3.65;;
65552;SDS011;52465;51.560;14.368;2022-08-14T02:15:35;4.45;;;3.72;;
65552;SDS011;52465;51.560;14.368;2022-08-14T02:18:02;4.13;;;3.50;;
65552;SDS011;52465;51.560;14.368;2022-08-14T02:20:29;5.07;;;3.90;;
65552;SDS011;52465;51.560;14.368;2022-08-14T02:22:58;4.25;;;3.55;;
65552;SDS011;52465;51.560;14.368;2022-08-14T02:25:24;4.32;;;3.60;;
65552;SDS011;52465;51.560;14.368;2022-08-14T02:27:50;4.15;;;3.40;;
65552;SDS011;52465;51.560;14.368;2022-08-14T02:30:15;4.22;;;3.65;;
65552;SDS011;52465;51.560;14.368;2022-08-14T02:32:40;4.30;;;3.78;;
65552;SDS011;52465;51.560;14.368;2022-08-14T02:35:07;3.92;;;3.30;;
65552;SDS011;52465;51.560;14.368;2022-08-14T02:37:37;3.40;;;3.00;;
65552;SDS011;52465;51.560;14.368;2022-08-14T02:40:04;3.95;;;3.30;;
65552;SDS011;52465;51.560;14.368;2022-08-14T02:42:30;4.57;;;3.72;;
65552;SDS011;52465;51.560;14.368;2022-08-14T02:44:56;3.67;;;3.25;;
65552;SDS011;52465;51.560;14.368;2022-08-14T02:47:22;3.95;;;3.55;;
65552;SDS011;52465;51.560;14.368;2022-08-14T02:49:47;3.67;;;3.38;;
65552;SDS011;52465;51.560;14.368;2022-08-14T02:52:13;3.60;;;3.30;;
65552;SDS011;52465;51.560;14.368;2022-08-14T02:54:39;4.07;;;3.55;;
65552;SDS011;52465;51.560;14.368;2022-08-14T02:57:04;3.83;;;3.33;;
65552;SDS011;52465;51.560;14.368;2022-08-14T02:59:31;5.55;;;3.78;;
65552;SDS011;52465;51.560;14.368;2022-08-14T03:01:58;4.63;;;3.78;;
65552;SDS011;52465;51.560;14.368;2022-08-14T03:04:24;4.18;;;3.60;;
65552;SDS011;52465;51.560;14.368;2022-08-14T03:06:52;4.38;;;3.55;;
65552;SDS011;52465;51.560;14.368;2022-08-14T03:09:21;4.15;;;3.50;;
65552;SDS011;52465;51.560;14.368;2022-08-14T03:11:47;4.32;;;3.65;;
65552;SDS011;52465;51.560;14.368;2022-08-14T03:14:12;4.00;;;3.55;;
65552;SDS011;52465;51.560;14.368;2022-08-14T03:16:38;4.45;;;3.80;;
65552;SDS011;52465;51.560;14.368;2022-08-14T03:19:05;4.28;;;3.80;;
65552;SDS011;52465;51.560;14.368;2022-08-14T03:21:31;3.97;;;3.58;;
65552;SDS011;52465;51.560;14.368;2022-08-14T03:23:58;4.57;;;3.80;;
65552;SDS011;52465;51.560;14.368;2022-08-14T03:26:39;3.47;;;3.13;;
65552;SDS011;52465;51.560;14.368;2022-08-14T03:29:07;4.35;;;3.75;;
65552;SDS011;52465;51.560;14.368;2022-08-14T03:31:33;4.47;;;3.53;;
65552;SDS011;52465;51.560;14.368;2022-08-14T03:34:02;4.13;;;3.50;;
65552;SDS011;52465;51.560;14.368;2022-08-14T03:36:28;4.20;;;3.30;;
65552;SDS011;52465;51.560;14.368;2022-08-14T03:38:56;10.25;;;8.30;;
65552;SDS011;52465;51.560;14.368;2022-08-14T03:41:24;11.07;;;7.43;;
65552;SDS011;52465;51.560;14.368;2022-08-14T03:43:56;7.75;;;6.50;;
65552;SDS011;52465;51.560;14.368;2022-08-14T03:46:24;12.65;;;6.50;;
65552;SDS011;52465;51.560;14.368;2022-08-14T03:48:51;6.38;;;5.78;;
65552;SDS011;52465;51.560;14.368;2022-08-14T03:51:18;7.93;;;5.82;;
65552;SDS011;52465;51.560;14.368;2022-08-14T03:53:45;7.13;;;5.80;;
65552;SDS011;52465;51.560;14.368;2022-08-14T03:56:12;9.02;;;6.35;;
65552;SDS011;52465;51.560;14.368;2022-08-14T03:58:41;8.60;;;6.10;;
65552;SDS011;52465;51.560;14.368;2022-08-14T04:01:09;7.18;;;5.80;;
65552;SDS011;52465;51.560;14.368;2022-08-14T04:03:35;7.20;;;5.50;;
65552;SDS011;52465;51.560;14.368;2022-08-14T04:06:00;8.45;;;6.13;;
65552;SDS011;52465;51.560;14.368;2022-08-14T04:08:26;7.65;;;5.70;;
65552;SDS011;52465;51.560;14.368;2022-08-14T04:10:51;7.00;;;5.95;;
65552;SDS011;52465;51.560;14.368;2022-08-14T04:13:16;6.22;;;5.15;;
65552;SDS011;52465;51.560;14.368;2022-08-14T04:15:43;7.55;;;5.43;;
65552;SDS011;52465;51.560;14.368;2022-08-14T04:18:09;6.45;;;5.72;;
65552;SDS011;52465;51.560;14.368;2022-08-14T04:20:35;7.03;;;5.85;;
65552;SDS011;52465;51.560;14.368;2022-08-14T04:23:03;6.65;;;5.50;;
65552;SDS011;52465;51.560;14.368;2022-08-14T04:25:31;6.47;;;5.55;;
65552;SDS011;52465;51.560;14.368;2022-08-14T04:27:59;7.50;;;5.60;;
65552;SDS011;52465;51.560;14.368;2022-08-14T04:30:25;7.07;;;5.65;;
65552;SDS011;52465;51.560;14.368;2022-08-14T04:32:53;6.25;;;4.93;;
65552;SDS011;52465;51.560;14.368;2022-08-14T04:35:19;6.32;;;4.95;;
65552;SDS011;52465;51.560;14.368;2022-08-14T04:37:44;6.45;;;5.43;;
65552;SDS011;52465;51.560;14.368;2022-08-14T04:40:28;6.25;;;4.95;;
65552;SDS011;52465;51.560;14.368;2022-08-14T04:43:12;6.40;;;4.82;;
65552;SDS011;52465;51.560;14.368;2022-08-14T04:46:12;5.80;;;5.05;;
65552;SDS011;52465;51.560;14.368;2022-08-14T04:48:40;6.30;;;5.43;;
65552;SDS011;52465;51.560;14.368;2022-08-14T04:51:08;6.10;;;4.82;;
65552;SDS011;52465;51.560;14.368;2022-08-14T04:53:35;6.20;;;4.97;;
65552;SDS011;52465;51.560;14.368;2022-08-14T04:56:03;6.30;;;5.30;;
65552;SDS011;52465;51.560;14.368;2022-08-14T04:58:29;6.95;;;5.55;;
65552;SDS011;52465;51.560;14.368;2022-08-14T05:00:56;5.78;;;5.18;;
65552;SDS011;52465;51.560;14.368;2022-08-14T05:03:23;5.88;;;5.22;;
65552;SDS011;52465;51.560;14.368;2022-08-14T05:05:52;5.90;;;5.15;;
65552;SDS011;52465;51.560;14.368;2022-08-14T05:08:23;6.28;;;4.93;;
65552;SDS011;52465;51.560;14.368;2022-08-14T05:10:50;6.55;;;4.95;;
65552;SDS011;52465;51.560;14.368;2022-08-14T05:13:18;6.28;;;5.25;;
65552;SDS011;52465;51.560;14.368;2022-08-14T05:15:45;6.35;;;5.10;;
65552;SDS011;52465;51.560;14.368;2022-08-14T05:18:18;5.97;;;4.90;;
65552;SDS011;52465;51.560;14.368;2022-08-14T05:20:47;6.20;;;5.45;;
65552;SDS011;52465;51.560;14.368;2022-08-14T05:23:15;6.60;;;4.97;;
65552;SDS011;52465;51.560;14.368;2022-08-14T05:25:45;6.30;;;5.45;;
65552;SDS011;52465;51.560;14.368;2022-08-14T05:28:13;5.68;;;5.10;;
65552;SDS011;52465;51.560;14.368;2022-08-14T05:30:44;6.63;;;5.10;;
65552;SDS011;52465;51.560;14.368;2022-08-14T05:33:11;6.20;;;5.10;;
65552;SDS011;52465;51.560;14.368;2022-08-14T05:35:37;7.22;;;5.13;;
65552;SDS011;52465;51.560;14.368;2022-08-14T05:38:06;7.82;;;5.22;;
65552;SDS011;52465;51.560;14.368;2022-08-14T05:40:33;5.82;;;4.60;;
65552;SDS011;52465;51.560;14.368;2022-08-14T05:42:59;6.80;;;5.13;;
65552;SDS011;52465;51.560;14.368;2022-08-14T05:45:25;6.97;;;5.03;;
65552;SDS011;52465;51.560;14.368;2022-08-14T05:47:52;5.45;;;4.65;;
65552;SDS011;52465;51.560;14.368;2022-08-14T05:50:17;7.22;;;5.03;;
65552;SDS011;52465;51.560;14.368;2022-08-14T05:52:43;5.47;;;4.63;;
65552;SDS011;52465;51.560;14.368;2022-08-14T05:55:09;7.10;;;5.43;;
65552;SDS011;52465;51.560;14.368;2022-08-14T05:57:45;5.55;;;4.82;;
65552;SDS011;52465;51.560;14.368;2022-08-14T06:00:11;5.55;;;4.95;;
65552;SDS011;52465;51.560;14.368;2022-08-14T06:02:37;6.25;;;4.85;;
65552;SDS011;52465;51.560;14.368;2022-08-14T06:05:03;5.18;;;4.47;;
65552;SDS011;52465;51.560;14.368;2022-08-14T06:07:28;5.30;;;4.53;;
65552;SDS011;52465;51.560;14.368;2022-08-14T06:09:54;5.35;;;4.28;;
65552;SDS011;52465;51.560;14.368;2022-08-14T06:12:19;6.45;;;4.90;;
65552;SDS011;52465;51.560;14.368;2022-08-14T06:14:44;5.28;;;4.65;;
65552;SDS011;52465;51.560;14.368;2022-08-14T06:17:09;5.20;;;4.70;;
65552;SDS011;52465;51.560;14.368;2022-08-14T06:19:35;5.85;;;4.80;;
65552;SDS011;52465;51.560;14.368;2022-08-14T06:22:00;5.65;;;4.85;;
65552;SDS011;52465;51.560;14.368;2022-08-14T06:24:26;5.07;;;4.57;;
65552;SDS011;52465;51.560;14.368;2022-08-14T06:26:52;5.30;;;4.78;;
65552;SDS011;52465;51.560;14.368;2022-08-14T06:29:17;5.57;;;4.60;;
65552;SDS011;52465;51.560;14.368;2022-08-14T06:31:42;4.93;;;4.23;;
65552;SDS011;52465;51.560;14.368;2022-08-14T06:34:08;4.97;;;4.25;;
65552;SDS011;52465;51.560;14.368;2022-08-14T06:36:33;5.32;;;4.45;;
65552;SDS011;52465;51.560;14.368;2022-08-14T06:39:02;6.15;;;5.00;;
65552;SDS011;52465;51.560;14.368;2022-08-14T06:41:28;5.18;;;4.35;;
65552;SDS011;52465;51.560;14.368;2022-08-14T06:43:53;4.82;;;4.32;;
65552;SDS011;52465;51.560;14.368;2022-08-14T06:46:18;5.25;;;4.60;;
65552;SDS011;52465;51.560;14.368;2022-08-14T06:48:43;5.15;;;4.45;;
65552;SDS011;52465;51.560;14.368;2022-08-14T06:51:09;4.85;;;4.30;;
65552;SDS011;52465;51.560;14.368;2022-08-14T06:53:35;5.18;;;4.43;;
65552;SDS011;52465;51.560;14.368;2022-08-14T06:56:00;4.45;;;4.05;;
65552;SDS011;52465;51.560;14.368;2022-08-14T06:58:25;5.82;;;4.53;;
65552;SDS011;52465;51.560;14.368;2022-08-14T07:00:51;5.22;;;4.05;;
65552;SDS011;52465;51.560;14.368;2022-08-14T07:03:34;5.50;;;4.65;;
65552;SDS011;52465;51.560;14.368;2022-08-14T07:06:18;4.75;;;4.20;;
65552;SDS011;52465;51.560;14.368;2022-08-14T07:08:44;5.50;;;4.38;;
65552;SDS011;52465;51.560;14.368;2022-08-14T07:11:09;4.90;;;4.32;;
65552;SDS011;52465;51.560;14.368;2022-08-14T07:13:36;5.10;;;4.60;;
65552;SDS011;52465;51.560;14.368;2022-08-14T07:16:02;5.00;;;4.43;;
65552;SDS011;52465;51.560;14.368;2022-08-14T07:18:28;5.60;;;4.45;;
65552;SDS011;52465;51.560;14.368;2022-08-14T07:20:55;6.00;;;4.40;;
65552;SDS011;52465;51.560;14.368;2022-08-14T07:23:22;5.35;;;4.40;;
65552;SDS011;52465;51.560;14.368;2022-08-14T07:25:48;5.25;;;4.28;;
65552;SDS011;52465;51.560;14.368;2022-08-14T07:28:16;4.68;;;4.20;;
65552;SDS011;52465;51.560;14.368;2022-08-14T07:30:49;6.40;;;5.10;;
65552;SDS011;52465;51.560;14.368;2022-08-14T07:33:16;5.22;;;4.35;;
65552;SDS011;52465;51.560;14.368;2022-08-14T07:35:41;4.95;;;4.32;;
65552;SDS011;52465;51.560;14.368;2022-08-14T07:38:07;4.53;;;4.03;;
65552;SDS011;52465;51.560;14.368;2022-08-14T07:40:33;5.05;;;4.53;;
65552;SDS011;52465;51.560;14.368;2022-08-14T07:42:59;5.78;;;4.47;;
65552;SDS011;52465;51.560;14.368;2022-08-14T07:45:24;5.13;;;4.50;;
65552;SDS011;52465;51.560;14.368;2022-08-14T07:47:50;4.68;;;4.20;;
65552;SDS011;52465;51.560;14.368;2022-08-14T07:50:18;4.40;;;4.00;;
65552;SDS011;52465;51.560;14.368;2022-08-14T07:52:45;5.03;;;4.20;;
65552;SDS011;52465;51.560;14.368;2022-08-14T07:55:12;5.82;;;4.07;;
65552;SDS011;52465;51.560;14.368;2022-08-14T07:57:39;5.20;;;4.00;;
65552;SDS011;52465;51.560;14.368;2022-08-14T08:00:07;5.13;;;4.38;;
65552;SDS011;52465;51.560;14.368;2022-08-14T08:02:36;4.30;;;3.90;;
65552;SDS011;52465;51.560;14.368;2022-08-14T08:05:03;5.07;;;4.45;;
65552;SDS011;52465;51.560;14.368;2022-08-14T08:07:30;5.32;;;4.40;;
65552;SDS011;52465;51.560;14.368;2022-08-14T08:09:56;5.68;;;4.53;;
65552;SDS011;52465;51.560;14.368;2022-08-14T08:12:22;5.90;;;4.28;;
65552;SDS011;52465;51.560;14.368;2022-08-14T08:14:49;4.65;;;4.07;;
65552;SDS011;52465;51.560;14.368;2022-08-14T08:17:19;4.95;;;4.45;;
65552;SDS011;52465;51.560;14.368;2022-08-14T08:19:47;5.05;;;4.25;;
65552;SDS011;52465;51.560;14.368;2022-08-14T08:22:12;5.22;;;4.28;;
65552;SDS011;52465;51.560;14.368;2022-08-14T08:24:38;4.97;;;4.35;;
65552;SDS011;52465;51.560;14.368;2022-08-14T08:27:16;5.15;;;4.32;;
65552;SDS011;52465;51.560;14.368;2022-08-14T08:29:43;4.80;;;4.22;;
65552;SDS011;52465;51.560;14.368;2022-08-14T08:32:09;5.05;;;4.50;;
65552;SDS011;52465;51.560;14.368;2022-08-14T08:34:44;5.28;;;4.30;;
65552;SDS011;52465;51.560;14.368;2022-08-14T08:37:11;4.93;;;4.15;;
65552;SDS011;52465;51.560;14.368;2022-08-14T08:39:47;4.47;;;4.03;;
65552;SDS011;52465;51.560;14.368;2022-08-14T08:42:23;4.88;;;4.32;;
65552;SDS011;52465;51.560;14.368;2022-08-14T08:44:52;5.15;;;4.65;;
65552;SDS011;52465;51.560;14.368;2022-08-14T08:47:18;5.90;;;4.77;;
65552;SDS011;52465;51.560;14.368;2022-08-14T08:49:43;5.18;;;4.32;;
65552;SDS011;52465;51.560;14.368;2022-08-14T08:52:09;4.82;;;4.13;;
65552;SDS011;52465;51.560;14.368;2022-08-14T08:54:35;5.18;;;4.10;;
65552;SDS011;52465;51.560;14.368;2022-08-14T08:57:01;5.18;;;4.18;;
65552;SDS011;52465;51.560;14.368;2022-08-14T08:59:34;5.20;;;4.13;;
65552;SDS011;52465;51.560;14.368;2022-08-14T09:04:35;4.70;;;4.30;;
65552;SDS011;52465;51.560;14.368;2022-08-14T09:07:03;5.22;;;4.53;;
65552;SDS011;52465;51.560;14.368;2022-08-14T09:09:29;6.95;;;4.80;;
65552;SDS011;52465;51.560;14.368;2022-08-14T09:11:57;5.20;;;4.57;;
65552;SDS011;52465;51.560;14.368;2022-08-14T09:14:23;4.53;;;4.10;;
65552;SDS011;52465;51.560;14.368;2022-08-14T09:16:57;4.57;;;4.18;;
65552;SDS011;52465;51.560;14.368;2022-08-14T09:19:23;5.88;;;4.55;;
65552;SDS011;52465;51.560;14.368;2022-08-14T09:21:50;5.43;;;4.72;;
65552;SDS011;52465;51.560;14.368;2022-08-14T09:24:15;4.88;;;4.35;;
65552;SDS011;52465;51.560;14.368;2022-08-14T09:26:41;5.80;;;4.72;;
65552;SDS011;52465;51.560;14.368;2022-08-14T09:29:08;5.20;;;4.47;;
65552;SDS011;52465;51.560;14.368;2022-08-14T09:31:38;4.90;;;4.40;;
65552;SDS011;52465;51.560;14.368;2022-08-14T09:34:20;5.97;;;5.05;;
65552;SDS011;52465;51.560;14.368;2022-08-14T09:37:16;5.43;;;4.55;;
65552;SDS011;52465;51.560;14.368;2022-08-14T09:39:56;4.90;;;4.28;;
65552;SDS011;52465;51.560;14.368;2022-08-14T09:42:42;5.45;;;4.40;;
65552;SDS011;52465;51.560;14.368;2022-08-14T09:45:18;5.50;;;4.43;;
65552;SDS011;52465;51.560;14.368;2022-08-14T09:47:51;6.53;;;5.68;;
65552;SDS011;52465;51.560;14.368;2022-08-14T09:52:54;7.57;;;5.00;;
65552;SDS011;52465;51.560;14.368;2022-08-14T09:55:21;5.45;;;4.70;;
65552;SDS011;52465;51.560;14.368;2022-08-14T09:57:47;6.07;;;4.75;;
65552;SDS011;52465;51.560;14.368;2022-08-14T10:00:14;5.70;;;4.50;;
65552;SDS011;52465;51.560;14.368;2022-08-14T10:02:50;6.03;;;5.00;;
65552;SDS011;52465;51.560;14.368;2022-08-14T10:05:26;5.18;;;4.32;;
65552;SDS011;52465;51.560;14.368;2022-08-14T10:07:55;5.13;;;4.40;;
65552;SDS011;52465;51.560;14.368;2022-08-14T10:10:28;5.10;;;4.60;;
65552;SDS011;52465;51.560;14.368;2022-08-14T10:12:57;4.93;;;4.15;;
65552;SDS011;52465;51.560;14.368;2022-08-14T10:15:25;4.53;;;3.92;;
65552;SDS011;52465;51.560;14.368;2022-08-14T10:18:05;4.03;;;3.63;;
65552;SDS011;52465;51.560;14.368;2022-08-14T10:20:41;4.25;;;3.75;;
65552;SDS011;52465;51.560;14.368;2022-08-14T10:25:40;3.90;;;3.50;;
65552;SDS011;52465;51.560;14.368;2022-08-14T10:28:08;4.20;;;3.80;;
65552;SDS011;52465;51.560;14.368;2022-08-14T10:30:34;5.07;;;3.72;;
65552;SDS011;52465;51.560;14.368;2022-08-14T10:33:00;3.70;;;3.40;;
65552;SDS011;52465;51.560;14.368;2022-08-14T10:35:26;4.25;;;3.58;;
65552;SDS011;52465;51.560;14.368;2022-08-14T10:37:51;4.22;;;3.80;;
65552;SDS011;52465;51.560;14.368;2022-08-14T10:40:27;4.22;;;3.55;;
65552;SDS011;52465;51.560;14.368;2022-08-14T10:42:54;4.32;;;3.50;;
65552;SDS011;52465;51.560;14.368;2022-08-14T10:45:24;4.85;;;3.90;;
65552;SDS011;52465;51.560;14.368;2022-08-14T10:47:55;3.92;;;3.53;;
65552;SDS011;52465;51.560;14.368;2022-08-14T10:50:33;4.72;;;3.80;;
65552;SDS011;52465;51.560;14.368;2022-08-14T10:53:00;4.20;;;3.75;;
65552;SDS011;52465;51.560;14.368;2022-08-14T10:55:33;5.40;;;3.90;;
65552;SDS011;52465;51.560;14.368;2022-08-14T10:58:03;3.70;;;3.25;;
65552;SDS011;52465;51.560;14.368;2022-08-14T11:00:34;4.00;;;3.60;;
65552;SDS011;52465;51.560;14.368;2022-08-14T11:03:01;4.53;;;3.70;;
65552;SDS011;52465;51.560;14.368;2022-08-14T11:05:41;4.15;;;3.63;;
65552;SDS011;52465;51.560;14.368;2022-08-14T11:08:07;3.90;;;3.53;;
65552;SDS011;52465;51.560;14.368;2022-08-14T11:10:38;3.90;;;3.50;;
65552;SDS011;52465;51.560;14.368;2022-08-14T11:13:07;3.63;;;3.08;;
65552;SDS011;52465;51.560;14.368;2022-08-14T11:15:33;4.18;;;3.53;;
65552;SDS011;52465;51.560;14.368;2022-08-14T11:17:59;4.35;;;3.80;;
65552;SDS011;52465;51.560;14.368;2022-08-14T11:20:26;4.50;;;3.40;;
65552;SDS011;52465;51.560;14.368;2022-08-14T11:22:54;4.28;;;3.70;;
65552;SDS011;52465;51.560;14.368;2022-08-14T11:25:21;5.45;;;3.58;;
65552;SDS011;52465;51.560;14.368;2022-08-14T11:27:48;4.18;;;3.70;;
65552;SDS011;52465;51.560;14.368;2022-08-14T11:30:18;4.88;;;3.70;;
65552;SDS011;52465;51.560;14.368;2022-08-14T11:32:45;4.38;;;3.50;;
65552;SDS011;52465;51.560;14.368;2022-08-14T11:35:13;4.28;;;3.75;;
65552;SDS011;52465;51.560;14.368;2022-08-14T11:40:24;4.20;;;3.55;;
65552;SDS011;52465;51.560;14.368;2022-08-14T11:42:51;4.00;;;3.60;;
65552;SDS011;52465;51.560;14.368;2022-08-14T11:45:19;4.18;;;3.50;;
65552;SDS011;52465;51.560;14.368;2022-08-14T11:47:46;3.95;;;3.55;;
65552;SDS011;52465;51.560;14.368;2022-08-14T11:50:15;4.88;;;3.65;;
65552;SDS011;52465;51.560;14.368;2022-08-14T11:52:43;4.57;;;3.80;;
65552;SDS011;52465;51.560;14.368;2022-08-14T11:55:10;4.20;;;3.80;;
65552;SDS011;52465;51.560;14.368;2022-08-14T11:57:42;4.43;;;4.03;;
65552;SDS011;52465;51.560;14.368;2022-08-14T12:00:09;4.47;;;4.00;;
65552;SDS011;52465;51.560;14.368;2022-08-14T12:02:48;4.45;;;3.95;;
65552;SDS011;52465;51.560;14.368;2022-08-14T12:05:28;4.55;;;3.95;;
65552;SDS011;52465;51.560;14.368;2022-08-14T12:07:58;4.05;;;3.55;;
65552;SDS011;52465;51.560;14.368;2022-08-14T12:10:25;4.60;;;3.95;;
65552;SDS011;52465;51.560;14.368;2022-08-14T12:12:50;3.90;;;3.50;;
65552;SDS011;52465;51.560;14.368;2022-08-14T12:15:27;4.43;;;3.88;;
65552;SDS011;52465;51.560;14.368;2022-08-14T12:17:53;4.47;;;4.07;;
65552;SDS011;52465;51.560;14.368;2022-08-14T12:20:27;4.57;;;4.10;;
65552;SDS011;52465;51.560;14.368;2022-08-14T12:22:53;5.40;;;3.97;;
65552;SDS011;52465;51.560;14.368;2022-08-14T12:25:20;4.32;;;3.92;;
65552;SDS011;52465;51.560;14.368;2022-08-14T12:27:48;4.55;;;4.03;;
65552;SDS011;52465;51.560;14.368;2022-08-14T12:30:26;4.40;;;3.97;;
65552;SDS011;52465;51.560;14.368;2022-08-14T12:32:51;5.05;;;4.10;;
65552;SDS011;52465;51.560;14.368;2022-08-14T12:35:16;4.05;;;3.65;;
65552;SDS011;52465;51.560;14.368;2022-08-14T12:37:48;4.50;;;4.07;;
65552;SDS011;52465;51.560;14.368;2022-08-14T12:40:15;4.80;;;4.10;;
65552;SDS011;52465;51.560;14.368;2022-08-14T12:42:42;5.95;;;4.55;;
65552;SDS011;52465;51.560;14.368;2022-08-14T12:45:08;4.75;;;4.25;;
65552;SDS011;52465;51.560;14.368;2022-08-14T12:47:37;4.55;;;4.00;;
65552;SDS011;52465;51.560;14.368;2022-08-14T12:50:03;4.13;;;3.72;;
65552;SDS011;52465;51.560;14.368;2022-08-14T12:52:30;4.90;;;4.40;;
65552;SDS011;52465;51.560;14.368;2022-08-14T12:54:56;4.32;;;3.85;;
65552;SDS011;52465;51.560;14.368;2022-08-14T12:57:31;4.80;;;4.22;;
65552;SDS011;52465;51.560;14.368;2022-08-14T13:00:05;4.15;;;3.75;;
65552;SDS011;52465;51.560;14.368;2022-08-14T13:02:40;4.75;;;4.10;;
65552;SDS011;52465;51.560;14.368;2022-08-14T13:05:06;4.15;;;3.75;;
65552;SDS011;52465;51.560;14.368;2022-08-14T13:07:33;4.55;;;3.97;;
65552;SDS011;52465;51.560;14.368;2022-08-14T13:10:00;4.28;;;3.75;;
65552;SDS011;52465;51.560;14.368;2022-08-14T13:12:25;4.85;;;4.28;;
65552;SDS011;52465;51.560;14.368;2022-08-14T13:14:56;5.25;;;4.28;;
65552;SDS011;52465;51.560;14.368;2022-08-14T13:17:25;4.22;;;3.78;;
65552;SDS011;52465;51.560;14.368;2022-08-14T13:19:52;5.05;;;4.40;;
65552;SDS011;52465;51.560;14.368;2022-08-14T13:22:21;4.03;;;3.60;;
65552;SDS011;52465;51.560;14.368;2022-08-14T13:24:52;5.07;;;3.85;;
65552;SDS011;52465;51.560;14.368;2022-08-14T13:27:21;4.38;;;3.97;;
65552;SDS011;52465;51.560;14.368;2022-08-14T13:29:47;4.20;;;3.80;;
65552;SDS011;52465;51.560;14.368;2022-08-14T13:32:16;4.20;;;3.80;;
65552;SDS011;52465;51.560;14.368;2022-08-14T13:34:43;4.43;;;4.03;;
65552;SDS011;52465;51.560;14.368;2022-08-14T13:37:15;4.40;;;3.83;;
65552;SDS011;52465;51.560;14.368;2022-08-14T13:39:46;4.68;;;3.90;;
65552;SDS011;52465;51.560;14.368;2022-08-14T13:42:12;4.18;;;3.78;;
65552;SDS011;52465;51.560;14.368;2022-08-14T13:44:38;4.78;;;4.15;;
65552;SDS011;52465;51.560;14.368;2022-08-14T13:47:04;4.35;;;3.95;;
65552;SDS011;52465;51.560;14.368;2022-08-14T13:49:30;4.45;;;4.05;;
65552;SDS011;52465;51.560;14.368;2022-08-14T13:51:56;5.20;;;4.05;;
65552;SDS011;52465;51.560;14.368;2022-08-14T13:54:23;4.22;;;3.83;;
65552;SDS011;52465;51.560;14.368;2022-08-14T13:56:53;5.10;;;3.83;;
65552;SDS011;52465;51.560;14.368;2022-08-14T13:59:23;5.53;;;4.25;;
65552;SDS011;52465;51.560;14.368;2022-08-14T14:01:52;4.72;;;4.25;;
65552;SDS011;52465;51.560;14.368;2022-08-14T14:04:20;5.10;;;4.00;;
65552;SDS011;52465;51.560;14.368;2022-08-14T14:06:48;5.65;;;4.40;;
65552;SDS011;52465;51.560;14.368;2022-08-14T14:09:20;7.47;;;4.68;;
65552;SDS011;52465;51.560;14.368;2022-08-14T14:11:52;5.03;;;4.45;;
65552;SDS011;52465;51.560;14.368;2022-08-14T14:14:20;5.15;;;4.28;;
65552;SDS011;52465;51.560;14.368;2022-08-14T14:16:47;5.00;;;4.22;;
65552;SDS011;52465;51.560;14.368;2022-08-14T14:19:16;4.70;;;4.20;;
65552;SDS011;52465;51.560;14.368;2022-08-14T14:21:43;5.18;;;4.68;;
65552;SDS011;52465;51.560;14.368;2022-08-14T14:24:08;5.05;;;4.53;;
65552;SDS011;52465;51.560;14.368;2022-08-14T14:26:34;6.60;;;4.43;;
65552;SDS011;52465;51.560;14.368;2022-08-14T14:29:00;4.45;;;3.72;;
65552;SDS011;52465;51.560;14.368;2022-08-14T14:31:26;5.82;;;4.50;;
65552;SDS011;52465;51.560;14.368;2022-08-14T14:33:58;5.57;;;4.47;;
65552;SDS011;52465;51.560;14.368;2022-08-14T14:36:26;4.53;;;4.10;;
65552;SDS011;52465;51.560;14.368;2022-08-14T14:41:27;4.22;;;3.83;;
65552;SDS011;52465;51.560;14.368;2022-08-14T14:43:54;5.15;;;4.20;;
65552;SDS011;52465;51.560;14.368;2022-08-14T14:46:23;6.80;;;4.35;;
65552;SDS011;52465;51.560;14.368;2022-08-14T14:48:49;4.82;;;3.85;;
65552;SDS011;52465;51.560;14.368;2022-08-14T14:51:15;5.05;;;4.00;;
65552;SDS011;52465;51.560;14.368;2022-08-14T14:53:42;5.05;;;4.10;;